createdAt,value
2018-07-24T00:00:38.194Z,21.88
2018-07-24T00:03:07.086Z,21.95
2018-07-24T00:05:36.000Z,21.93
2018-07-24T00:08:05.124Z,21.84
2018-07-24T00:10:34.012Z,21.80
2018-07-24T00:13:02.951Z,21.72
2018-07-24T00:15:31.854Z,21.78
2018-07-24T00:18:00.750Z,21.82
2018-07-24T00:20:29.988Z,21.70
2018-07-24T00:22:58.890Z,21.76
2018-07-24T00:25:27.780Z,21.76
2018-07-24T00:27:56.687Z,21.79
2018-07-24T00:30:25.630Z,21.75
2018-07-24T00:32:54.542Z,21.74
2018-07-24T00:35:23.429Z,21.63
2018-07-24T00:37:52.421Z,21.66
2018-07-24T00:40:21.371Z,21.59
2018-07-24T00:42:50.304Z,21.60
2018-07-24T00:45:19.227Z,21.57
2018-07-24T00:47:48.156Z,21.62
2018-07-24T00:50:17.054Z,21.59
2018-07-24T00:52:45.977Z,21.60
2018-07-24T00:55:14.889Z,21.58
2018-07-24T00:57:43.802Z,21.55
2018-07-24T01:00:12.776Z,21.48
2018-07-24T01:02:41.910Z,21.54
2018-07-24T01:05:10.904Z,21.56
2018-07-24T01:07:39.838Z,21.49
2018-07-24T01:10:10.492Z,21.51
2018-07-24T01:12:39.740Z,21.57
2018-07-24T01:15:08.834Z,21.57
2018-07-24T01:17:37.728Z,21.47
2018-07-24T01:20:06.898Z,21.52
2018-07-24T01:22:35.866Z,21.61
2018-07-24T01:25:04.849Z,21.58
2018-07-24T01:27:33.757Z,21.58
2018-07-24T01:30:02.756Z,21.49
2018-07-24T01:32:31.866Z,21.56
2018-07-24T01:35:00.769Z,21.57
2018-07-24T01:37:29.727Z,21.53
2018-07-24T01:39:58.643Z,21.55
2018-07-24T01:42:27.614Z,21.53
2018-07-24T01:44:56.598Z,21.47
2018-07-24T01:47:25.481Z,21.39
2018-07-24T01:49:54.386Z,21.36
2018-07-24T01:52:23.309Z,21.34
2018-07-24T01:54:52.519Z,21.39
2018-07-24T01:57:21.684Z,21.37
2018-07-24T01:59:50.593Z,21.36
2018-07-24T02:02:19.540Z,21.34
2018-07-24T02:04:48.460Z,21.39
2018-07-24T02:07:17.547Z,21.34
2018-07-24T02:09:46.504Z,21.34
2018-07-24T02:12:15.393Z,21.32
2018-07-24T02:14:44.285Z,21.32
2018-07-24T02:17:13.204Z,21.32
2018-07-24T02:19:42.109Z,21.34
2018-07-24T02:22:11.072Z,21.34
2018-07-24T02:24:39.983Z,21.29
2018-07-24T02:27:08.879Z,21.35
2018-07-24T02:29:38.234Z,21.40
2018-07-24T02:32:07.394Z,21.34
2018-07-24T02:34:36.551Z,21.39
2018-07-24T02:37:05.483Z,21.35
2018-07-24T02:39:34.413Z,21.29
2018-07-24T02:42:03.332Z,21.27
2018-07-24T02:44:35.741Z,21.25
2018-07-24T02:47:04.669Z,21.23
2018-07-24T02:49:33.644Z,21.28
2018-07-24T02:52:02.666Z,21.25
2018-07-24T02:54:31.580Z,21.24
2018-07-24T02:57:00.484Z,21.24
2018-07-24T02:59:29.397Z,21.21
2018-07-24T03:01:58.313Z,21.21
2018-07-24T03:04:27.217Z,21.19
2018-07-24T03:06:56.152Z,21.21
2018-07-24T03:09:25.068Z,21.20
2018-07-24T03:11:53.984Z,21.18
2018-07-24T03:14:22.893Z,21.17
2018-07-24T03:16:51.815Z,21.16
2018-07-24T03:19:20.902Z,21.14
2018-07-24T03:21:49.793Z,21.14
2018-07-24T03:24:18.878Z,21.11
2018-07-24T03:26:48.056Z,21.06
2018-07-24T03:29:17.010Z,21.08
2018-07-24T03:31:46.342Z,21.06
2018-07-24T03:34:15.315Z,21.01
2018-07-24T03:36:47.404Z,21.08
2018-07-24T03:39:16.599Z,21.11
2018-07-24T03:41:45.566Z,21.11
2018-07-24T03:44:15.095Z,21.06
2018-07-24T03:46:44.010Z,21.04
2018-07-24T03:49:12.921Z,20.98
2018-07-24T03:51:41.848Z,20.99
2018-07-24T03:54:10.971Z,20.97
2018-07-24T03:56:39.875Z,20.97
2018-07-24T03:59:08.793Z,20.94
2018-07-24T04:01:38.033Z,20.98
2018-07-24T04:04:08.467Z,21.00
2018-07-24T04:06:37.591Z,21.01
2018-07-24T04:09:08.410Z,21.05
2018-07-24T04:11:37.679Z,21.06
2018-07-24T04:14:06.968Z,21.09
2018-07-24T04:16:36.269Z,21.08
2018-07-24T04:19:05.174Z,21.10
2018-07-24T04:21:34.071Z,21.17
2018-07-24T04:24:03.006Z,21.17
2018-07-24T04:26:31.966Z,21.19
2018-07-24T04:29:00.898Z,21.18
2018-07-24T04:31:30.021Z,21.14
2018-07-24T04:33:59.511Z,21.17
2018-07-24T04:36:28.714Z,21.19
2018-07-24T04:38:57.945Z,21.21
2018-07-24T04:41:27.101Z,21.22
2018-07-24T04:43:56.275Z,21.22
2018-07-24T04:46:25.446Z,21.19
2018-07-24T04:48:54.720Z,21.19
2018-07-24T04:51:23.639Z,21.18
2018-07-24T04:53:52.529Z,21.22
2018-07-24T04:56:21.438Z,21.28
2018-07-24T04:58:50.333Z,21.28
2018-07-24T05:01:19.448Z,21.32
2018-07-24T05:03:48.495Z,21.36
2018-07-24T05:06:17.442Z,21.43
2018-07-24T05:08:46.323Z,21.43
2018-07-24T05:11:15.257Z,21.43
2018-07-24T05:13:44.204Z,21.44
2018-07-24T05:16:14.118Z,21.44
2018-07-24T05:18:43.029Z,21.50
2018-07-24T05:21:11.961Z,21.53
2018-07-24T05:23:40.964Z,21.57
2018-07-24T05:26:10.621Z,21.61
2018-07-24T05:28:39.539Z,21.67
2018-07-24T05:31:08.431Z,21.73
2018-07-24T05:33:37.355Z,21.81
2018-07-24T05:36:06.262Z,21.88
2018-07-24T05:38:35.192Z,21.96
2018-07-24T05:41:04.149Z,21.99
2018-07-24T05:43:33.096Z,22.05
2018-07-24T05:46:02.129Z,22.08
2018-07-24T05:48:31.184Z,22.11
2018-07-24T05:51:00.026Z,22.18
2018-07-24T05:53:28.943Z,22.23
2018-07-24T05:55:57.863Z,22.28
2018-07-24T05:58:26.812Z,22.32
2018-07-24T06:00:55.731Z,22.43
2018-07-24T06:03:24.728Z,22.51
2018-07-24T06:05:53.637Z,22.60
2018-07-24T06:08:22.535Z,22.65
2018-07-24T06:10:51.448Z,22.64
2018-07-24T06:13:20.373Z,22.63
2018-07-24T06:15:49.263Z,22.71
2018-07-24T06:18:18.199Z,22.73
2018-07-24T06:20:47.119Z,22.76
2018-07-24T06:23:16.045Z,22.82
2018-07-24T06:25:44.972Z,22.86
2018-07-24T06:28:14.320Z,22.93
2018-07-24T06:30:43.265Z,22.97
2018-07-24T06:33:12.166Z,23.01
2018-07-24T06:35:41.303Z,23.06
2018-07-24T06:38:10.446Z,23.12
2018-07-24T06:40:39.343Z,23.22
2018-07-24T06:43:08.286Z,23.30
2018-07-24T06:45:37.829Z,23.37
2018-07-24T06:48:07.069Z,23.49
2018-07-24T06:50:35.972Z,23.57
2018-07-24T06:53:04.883Z,23.60
2018-07-24T06:55:34.069Z,23.67
2018-07-24T06:58:03.387Z,23.75
2018-07-24T07:00:32.298Z,23.80
2018-07-24T07:03:01.213Z,23.91
2018-07-24T07:05:30.128Z,23.97
2018-07-24T07:07:59.007Z,24.02
2018-07-24T07:10:27.934Z,24.08
2018-07-24T07:12:56.860Z,24.11
2018-07-24T07:15:25.793Z,24.21
2018-07-24T07:17:54.711Z,24.29
2018-07-24T07:20:23.747Z,24.35
2018-07-24T07:22:52.649Z,24.38
2018-07-24T07:25:21.549Z,24.42
2018-07-24T07:27:50.450Z,24.46
2018-07-24T07:30:19.384Z,24.53
2018-07-24T07:32:48.425Z,24.56
2018-07-24T07:35:17.332Z,24.73
2018-07-24T07:37:46.215Z,24.77
2018-07-24T07:40:15.129Z,24.76
2018-07-24T07:42:44.066Z,24.77
2018-07-24T07:45:13.032Z,24.92
2018-07-24T07:47:41.909Z,25.02
2018-07-24T07:50:10.830Z,25.08
2018-07-24T07:52:39.726Z,25.14
2018-07-24T07:55:08.635Z,25.16
2018-07-24T07:57:37.540Z,25.26
2018-07-24T08:00:06.968Z,25.36
2018-07-24T08:02:35.946Z,25.44
2018-07-24T08:05:04.761Z,25.48
2018-07-24T08:07:33.681Z,25.53
2018-07-24T08:10:02.577Z,25.58
2018-07-24T08:12:31.459Z,25.61
2018-07-24T08:15:00.379Z,25.73
2018-07-24T08:17:29.269Z,25.84
2018-07-24T08:19:58.256Z,25.83
2018-07-24T08:22:27.195Z,25.81
2018-07-24T08:24:56.107Z,26.11
2018-07-24T08:27:24.982Z,26.06
2018-07-24T08:29:53.877Z,26.18
2018-07-24T08:32:22.785Z,26.20
2018-07-24T08:34:51.896Z,26.38
2018-07-24T08:37:20.979Z,26.25
2018-07-24T08:39:49.892Z,26.22
2018-07-24T08:42:19.000Z,26.25
2018-07-24T08:44:47.930Z,26.45
2018-07-24T08:47:16.796Z,26.51
2018-07-24T08:49:45.739Z,26.74
2018-07-24T08:52:14.634Z,26.90
2018-07-24T08:54:43.688Z,26.80
2018-07-24T08:57:12.664Z,26.85
2018-07-24T08:59:41.834Z,26.88
2018-07-24T09:02:10.945Z,26.93
2018-07-24T09:04:40.130Z,27.08
2018-07-24T09:07:09.025Z,27.08
2018-07-24T09:09:37.922Z,27.02
2018-07-24T09:12:06.857Z,27.06
2018-07-24T09:14:35.749Z,27.02
2018-07-24T09:17:04.696Z,26.88
2018-07-24T09:19:33.563Z,27.09
2018-07-24T09:22:02.751Z,27.36
2018-07-24T09:24:31.673Z,27.22
2018-07-24T09:27:00.638Z,27.18
2018-07-24T09:29:29.459Z,27.27
2018-07-24T09:31:58.425Z,27.27
2018-07-24T09:34:27.273Z,27.41
2018-07-24T09:36:56.164Z,27.57
2018-07-24T09:39:25.047Z,27.59
2018-07-24T09:41:53.922Z,27.85
2018-07-24T09:44:22.841Z,27.87
2018-07-24T09:46:51.730Z,27.96
2018-07-24T09:49:20.742Z,27.81
2018-07-24T09:51:49.677Z,27.83
2018-07-24T09:54:18.581Z,27.85
2018-07-24T09:56:47.510Z,27.92
2018-07-24T09:59:16.471Z,27.96
2018-07-24T10:01:45.323Z,28.02
2018-07-24T10:04:14.239Z,28.06
2018-07-24T10:06:43.114Z,28.13
2018-07-24T10:09:12.042Z,28.15
2018-07-24T10:11:40.975Z,28.08
2018-07-24T10:14:09.881Z,28.10
2018-07-24T10:16:38.878Z,28.07
2018-07-24T10:19:07.709Z,28.05
2018-07-24T10:21:36.633Z,28.15
2018-07-24T10:24:05.572Z,28.26
2018-07-24T10:26:34.604Z,28.08
2018-07-24T10:29:03.541Z,28.04
2018-07-24T10:31:32.479Z,28.50
2018-07-24T10:34:01.404Z,28.37
2018-07-24T10:36:30.305Z,28.32
2018-07-24T10:38:59.196Z,28.48
2018-07-24T10:44:01.276Z,28.70
2018-07-24T10:46:30.191Z,28.81
2018-07-24T10:48:59.093Z,28.97
2018-07-24T10:51:28.056Z,28.80
2018-07-24T10:53:56.979Z,28.78
2018-07-24T10:56:26.075Z,28.88
2018-07-24T10:58:55.082Z,29.09
2018-07-24T11:01:24.138Z,29.24
2018-07-24T11:03:57.188Z,29.21
2018-07-24T11:06:26.425Z,29.56
2018-07-24T11:08:55.529Z,29.48
2018-07-24T11:11:28.161Z,29.36
2018-07-24T11:13:57.078Z,29.33
2018-07-24T11:16:25.979Z,29.35
2018-07-24T11:18:54.851Z,29.42
2018-07-24T11:21:23.781Z,29.38
2018-07-24T11:23:52.702Z,29.54
2018-07-24T11:26:21.614Z,29.78
2018-07-24T11:28:50.722Z,29.89
2018-07-24T11:31:19.637Z,29.98
2018-07-24T11:33:48.608Z,30.02
2018-07-24T11:36:17.561Z,30.11
2018-07-24T11:38:46.469Z,30.10
2018-07-24T11:41:15.360Z,30.09
2018-07-24T11:43:44.324Z,30.03
2018-07-24T11:46:13.228Z,30.25
2018-07-24T11:48:42.157Z,30.29
2018-07-24T11:51:11.137Z,30.41
2018-07-24T11:53:40.033Z,30.21
2018-07-24T11:56:09.217Z,30.47
2018-07-24T11:58:38.170Z,30.56
2018-07-24T12:01:07.019Z,30.49
2018-07-24T12:03:35.970Z,30.52
2018-07-24T12:06:04.994Z,30.59
2018-07-24T12:08:33.921Z,30.58
2018-07-24T12:11:02.809Z,30.47
2018-07-24T12:13:31.727Z,30.72
2018-07-24T12:16:00.637Z,30.88
2018-07-24T12:18:29.550Z,31.12
2018-07-24T12:20:58.450Z,30.92
2018-07-24T12:23:27.387Z,31.07
2018-07-24T12:25:56.295Z,30.60
2018-07-24T12:28:25.225Z,30.69
2018-07-24T12:30:54.140Z,30.93
2018-07-24T12:33:23.049Z,31.03
2018-07-24T12:35:52.019Z,31.11
2018-07-24T12:38:20.885Z,30.91
2018-07-24T12:40:49.820Z,30.70
2018-07-24T12:43:18.737Z,30.87
2018-07-24T12:45:47.671Z,30.96
2018-07-24T12:48:16.617Z,31.24
2018-07-24T12:50:45.549Z,30.90
2018-07-24T12:53:14.483Z,31.12
2018-07-24T12:55:43.453Z,31.30
2018-07-24T12:58:12.366Z,31.24
2018-07-24T13:00:41.293Z,31.31
2018-07-24T13:03:10.213Z,31.16
2018-07-24T13:05:39.201Z,31.57
2018-07-24T13:08:08.125Z,31.52
2018-07-24T13:10:37.067Z,31.58
2018-07-24T13:13:06.016Z,31.54
2018-07-24T13:15:34.901Z,31.84
2018-07-24T13:18:04.001Z,31.95
2018-07-24T13:20:33.086Z,31.97
2018-07-24T13:23:02.791Z,31.79
2018-07-24T13:25:31.760Z,31.79
2018-07-24T13:28:00.740Z,31.76
2018-07-24T13:30:29.622Z,31.75
2018-07-24T13:32:58.527Z,31.44
2018-07-24T13:35:27.429Z,31.12
2018-07-24T13:37:56.329Z,31.03
2018-07-24T13:40:25.400Z,31.23
2018-07-24T13:42:54.364Z,31.53
2018-07-24T13:45:23.277Z,31.76
2018-07-24T13:47:52.369Z,32.27
2018-07-24T13:50:21.309Z,31.99
2018-07-24T13:52:50.223Z,31.68
2018-07-24T13:55:19.136Z,31.85
2018-07-24T13:57:48.104Z,31.86
2018-07-24T14:00:17.262Z,32.00
2018-07-24T14:02:46.176Z,32.00
2018-07-24T14:05:15.056Z,32.13
2018-07-24T14:07:43.974Z,32.17
2018-07-24T14:10:12.893Z,32.06
2018-07-24T14:12:41.803Z,32.06
2018-07-24T14:15:10.768Z,31.83
2018-07-24T14:17:39.687Z,31.86
2018-07-24T14:20:12.577Z,31.83
2018-07-24T14:22:41.683Z,31.99
2018-07-24T14:25:10.636Z,32.07
2018-07-24T14:27:39.623Z,31.99
2018-07-24T14:30:09.188Z,32.00
2018-07-24T14:32:38.095Z,31.93
2018-07-24T14:35:07.185Z,31.82
2018-07-24T14:37:37.430Z,31.69
2018-07-24T14:40:06.727Z,31.44
2018-07-24T14:42:35.969Z,31.47
2018-07-24T14:45:05.063Z,31.66
2018-07-24T14:47:34.007Z,31.60
2018-07-24T14:50:03.916Z,31.66
2018-07-24T14:52:32.793Z,31.78
2018-07-24T14:58:26.018Z,31.82
2018-07-24T15:00:55.917Z,31.99
2018-07-24T15:03:24.914Z,31.95
2018-07-24T15:05:54.051Z,31.84
2018-07-24T16:24:55.694Z,31.75
2018-07-24T16:27:28.345Z,31.77
2018-07-24T16:30:03.848Z,31.77
2018-07-24T16:32:32.862Z,31.71
2018-07-24T16:35:01.923Z,31.85
2018-07-24T16:37:34.928Z,31.76
2018-07-24T16:40:04.198Z,31.95
2018-07-24T16:42:36.175Z,31.78
2018-07-24T16:45:10.329Z,31.78
2018-07-24T16:47:46.633Z,31.83
2018-07-24T16:50:16.640Z,32.02
2018-07-24T16:52:46.628Z,31.93
2018-07-24T16:55:21.966Z,31.82
2018-07-24T16:57:51.039Z,31.60
2018-07-24T17:00:24.909Z,31.69
2018-07-24T17:02:55.410Z,31.83
2018-07-24T17:05:43.655Z,31.61
2018-07-24T17:08:12.736Z,31.45
2018-07-24T17:10:41.855Z,31.44
2018-07-24T17:13:23.585Z,31.47
2018-07-24T17:15:53.746Z,31.49
2018-07-24T17:18:28.617Z,31.51
2018-07-24T17:21:01.842Z,31.59
2018-07-24T17:23:30.771Z,31.37
2018-07-24T17:26:04.415Z,31.38
2018-07-24T17:28:37.462Z,31.29
2018-07-24T17:31:08.596Z,31.19
2018-07-24T17:33:37.556Z,31.03
2018-07-24T17:36:08.455Z,30.92
2018-07-24T17:38:38.398Z,30.82
2018-07-24T17:41:11.430Z,30.72
2018-07-24T17:43:40.361Z,30.59
2018-07-24T17:46:14.479Z,30.54
2018-07-24T17:48:46.598Z,30.47
2018-07-24T17:51:16.559Z,30.47
2018-07-24T17:53:45.880Z,30.43
2018-07-24T17:56:15.330Z,30.32
2018-07-24T17:58:50.640Z,30.28
2018-07-24T18:01:19.585Z,30.21
2018-07-24T18:03:49.488Z,30.12
2018-07-24T18:06:36.892Z,30.07
2018-07-24T18:09:10.018Z,30.08
2018-07-24T18:11:40.974Z,30.03
2018-07-24T18:14:15.785Z,29.97
2018-07-24T18:16:45.751Z,29.91
2018-07-24T18:19:19.778Z,29.84
2018-07-24T18:21:53.932Z,29.75
2018-07-24T18:24:24.067Z,29.69
2018-07-24T18:26:54.966Z,29.67
2018-07-24T18:29:26.068Z,29.65
2018-07-24T18:31:55.633Z,29.62
2018-07-24T18:34:30.158Z,29.60
2018-07-24T18:37:03.166Z,29.55
2018-07-24T18:39:32.144Z,29.56
2018-07-24T18:42:05.660Z,29.49
2018-07-24T18:44:41.293Z,29.45
2018-07-24T18:47:12.201Z,29.40
2018-07-24T18:49:42.168Z,29.33
2018-07-24T18:52:11.098Z,29.25
2018-07-24T18:54:41.315Z,29.16
2018-07-24T18:57:14.803Z,29.09
2018-07-24T18:59:44.647Z,29.05
2018-07-24T19:02:13.853Z,28.98
2018-07-24T19:04:42.885Z,28.92
2018-07-24T19:07:12.596Z,28.87
2018-07-24T19:09:49.066Z,28.85
2018-07-24T19:12:19.327Z,28.79
2018-07-24T19:14:49.810Z,28.73
2018-07-24T19:17:23.860Z,28.71
2018-07-24T19:19:54.215Z,28.65
2018-07-24T19:22:23.530Z,28.59
2018-07-24T19:24:57.563Z,28.51
2018-07-24T19:27:26.676Z,28.44
2018-07-24T19:29:56.725Z,28.37
2018-07-24T19:32:26.753Z,28.32
2018-07-24T19:34:59.734Z,28.25
2018-07-24T19:37:34.348Z,28.19
2018-07-24T19:40:05.583Z,28.14
2018-07-24T19:42:34.754Z,28.09
2018-07-24T19:45:13.769Z,28.03
2018-07-24T19:47:42.725Z,27.97
2018-07-24T19:50:11.672Z,27.93
2018-07-24T19:52:43.745Z,27.88
2018-07-24T19:55:14.609Z,27.81
2018-07-24T19:57:48.932Z,27.78
2018-07-24T20:00:21.180Z,27.69
2018-07-24T20:02:54.349Z,27.65
2018-07-24T20:05:27.345Z,27.61
2018-07-24T20:07:58.307Z,27.58
2018-07-24T20:10:28.314Z,27.56
2018-07-24T20:12:58.401Z,27.47
2018-07-24T20:15:28.320Z,27.41
2018-07-24T20:17:57.306Z,27.36
2018-07-24T20:20:30.938Z,27.35
2018-07-24T20:23:00.097Z,27.31
2018-07-24T20:25:34.808Z,27.24
2018-07-24T20:28:27.151Z,27.23
2018-07-24T20:31:06.029Z,27.20
2018-07-24T20:33:46.984Z,27.18
2018-07-24T20:36:16.310Z,27.12
2018-07-24T20:38:48.753Z,27.12
2018-07-24T20:41:17.804Z,27.08
2018-07-24T20:43:55.273Z,27.06
2018-07-24T20:46:28.040Z,26.99
2018-07-24T20:48:57.029Z,26.99
2018-07-24T20:51:25.998Z,26.98
2018-07-24T20:53:55.974Z,26.88
2018-07-24T20:56:26.157Z,26.81
2018-07-24T20:58:58.667Z,26.77
2018-07-24T21:01:27.632Z,26.77
2018-07-24T21:04:01.174Z,26.74
2018-07-24T21:06:30.083Z,26.74
2018-07-24T21:09:04.072Z,26.70
2018-07-24T21:11:33.988Z,26.71
2018-07-24T21:14:09.679Z,26.71
2018-07-24T21:16:50.444Z,26.69
2018-07-24T21:19:21.510Z,26.97
2018-07-24T21:21:51.604Z,27.27
2018-07-24T21:24:25.467Z,27.32
2018-07-24T21:26:55.570Z,27.25
2018-07-24T21:29:24.499Z,27.31
2018-07-24T21:31:55.642Z,27.30
2018-07-24T21:34:32.345Z,27.32
2018-07-24T21:37:09.108Z,27.29
2018-07-24T21:39:51.026Z,27.26
2018-07-24T21:42:24.652Z,27.23
2018-07-24T21:44:59.052Z,27.20
2018-07-24T21:47:28.020Z,27.20
2018-07-24T21:50:13.822Z,27.16
2018-07-24T21:55:36.959Z,27.06
2018-07-24T21:58:12.766Z,27.01
2018-07-24T22:00:41.744Z,26.98
2018-07-24T22:03:31.216Z,26.94
2018-07-24T22:06:01.307Z,26.93
2018-07-24T22:08:30.185Z,26.91
2018-07-24T22:10:59.049Z,26.87
2018-07-24T22:13:27.944Z,26.83
2018-07-24T22:15:56.804Z,26.79
2018-07-24T22:18:25.712Z,26.78
2018-07-24T22:20:55.712Z,26.75
2018-07-24T22:23:24.596Z,26.73
2018-07-24T22:25:53.564Z,26.70
2018-07-24T22:28:22.490Z,26.68
2018-07-24T22:30:51.475Z,26.68
2018-07-24T22:33:20.350Z,26.63
2018-07-24T22:35:49.274Z,26.61
2018-07-24T22:41:11.930Z,26.56
2018-07-24T22:43:40.820Z,26.51
2018-07-24T22:49:04.352Z,26.48
2018-07-24T22:51:33.402Z,26.48
2018-07-24T22:54:02.244Z,26.40
2018-07-24T22:56:31.143Z,26.38
2018-07-24T22:59:00.046Z,26.35
2018-07-24T23:01:37.332Z,26.29
2018-07-24T23:04:06.429Z,26.26
2018-07-24T23:06:35.305Z,26.21
2018-07-24T23:09:16.618Z,26.18
2018-07-24T23:11:47.508Z,26.12
2018-07-24T23:14:16.393Z,26.11
2018-07-24T23:16:45.245Z,26.10
2018-07-24T23:19:14.153Z,26.05
2018-07-24T23:21:43.022Z,26.07
2018-07-24T23:24:11.960Z,26.04
2018-07-24T23:26:40.958Z,25.91
2018-07-24T23:29:09.833Z,25.91
2018-07-24T23:31:38.737Z,25.88
2018-07-24T23:34:07.670Z,25.86
2018-07-24T23:36:36.570Z,25.84
2018-07-24T23:39:11.539Z,25.85
2018-07-24T23:41:40.678Z,25.83
2018-07-24T23:44:09.774Z,25.79
2018-07-24T23:46:39.291Z,25.68
2018-07-24T23:49:08.211Z,25.70
2018-07-24T23:51:37.136Z,25.64
2018-07-24T23:54:07.080Z,25.60
2018-07-24T23:56:35.957Z,25.62
2018-07-24T23:59:11.887Z,25.65
